createdAt,value
2022-10-11T00:00:37.200Z,21.30
2022-10-11T00:03:05.303Z,19.55
2022-10-11T00:05:32.890Z,20.02
2022-10-11T00:08:00.402Z,17.42
2022-10-11T00:10:27.940Z,20.35
2022-10-11T00:12:55.314Z,18.67
2022-10-11T00:15:23.079Z,16.77
2022-10-11T00:17:50.782Z,19.20
2022-10-11T00:20:21.923Z,21.63
2022-10-11T00:22:49.628Z,15.75
2022-10-11T00:25:17.624Z,19.63
2022-10-11T00:27:45.285Z,14.57
2022-10-11T00:30:13.427Z,23.98
2022-10-11T00:32:40.821Z,22.58
2022-10-11T00:35:08.562Z,23.70
2022-10-11T00:37:37.655Z,16.65
2022-10-11T00:40:13.359Z,20.10
2022-10-11T00:42:43.645Z,17.77
2022-10-11T00:45:32.321Z,22.90
2022-10-11T00:48:07.525Z,14.13
2022-10-11T00:50:36.438Z,18.15
2022-10-11T00:53:09.975Z,18.20
2022-10-11T00:55:43.339Z,20.75
2022-10-11T00:58:12.628Z,24.13
2022-10-11T01:00:40.014Z,20.65
2022-10-11T01:03:07.363Z,17.58
2022-10-11T01:05:37.800Z,19.48
2022-10-11T01:08:07.051Z,16.52
2022-10-11T01:10:34.626Z,19.52
2022-10-11T01:13:40.652Z,17.92
2022-10-11T01:16:14.438Z,19.98
2022-10-11T01:18:50.271Z,21.50
2022-10-11T01:21:50.921Z,20.15
2022-10-11T01:24:30.162Z,23.85
2022-10-11T01:27:17.737Z,20.75
2022-10-11T01:30:04.309Z,30.95
2022-10-11T01:32:40.433Z,29.80
2022-10-11T01:35:16.774Z,21.92
2022-10-11T01:37:49.989Z,21.67
2022-10-11T01:40:46.844Z,22.70
2022-10-11T01:43:15.533Z,16.50
2022-10-11T01:45:44.625Z,17.98
2022-10-11T01:48:13.886Z,19.00
2022-10-11T01:50:51.480Z,17.73
2022-10-11T01:53:46.393Z,22.02
2022-10-11T01:56:31.503Z,19.13
2022-10-11T01:59:28.429Z,22.10
2022-10-11T02:02:04.321Z,22.98
2022-10-11T02:04:46.090Z,21.17
2022-10-11T02:07:23.273Z,18.75
2022-10-11T02:10:11.543Z,22.25
2022-10-11T02:12:48.964Z,27.95
2022-10-11T02:15:18.699Z,24.73
2022-10-11T02:17:54.061Z,19.60
2022-10-11T02:20:24.341Z,17.95
2022-10-11T02:22:58.402Z,24.75
2022-10-11T02:25:29.141Z,21.92
2022-10-11T02:28:00.445Z,20.42
2022-10-11T02:30:30.641Z,21.05
2022-10-11T02:33:02.210Z,22.80
2022-10-11T02:35:32.271Z,18.42
2022-10-11T02:38:07.682Z,22.45
2022-10-11T02:40:38.266Z,19.67
2022-10-11T02:43:12.428Z,24.33
2022-10-11T02:45:44.694Z,17.15
2022-10-11T02:48:12.804Z,23.48
2022-10-11T02:50:41.559Z,17.80
2022-10-11T02:53:09.225Z,17.65
2022-10-11T02:55:37.015Z,21.85
2022-10-11T02:58:04.414Z,18.65
2022-10-11T03:00:34.637Z,17.55
2022-10-11T03:03:02.022Z,20.98
2022-10-11T03:05:37.123Z,22.20
2022-10-11T03:08:04.545Z,14.57
2022-10-11T03:10:31.796Z,17.40
2022-10-11T03:12:59.136Z,22.00
2022-10-11T03:15:26.637Z,22.10
2022-10-11T03:17:54.210Z,23.88
2022-10-11T03:20:21.486Z,26.27
2022-10-11T03:22:51.167Z,17.17
2022-10-11T03:25:18.750Z,18.15
2022-10-11T03:27:48.173Z,18.08
2022-10-11T03:30:18.385Z,19.15
2022-10-11T03:32:46.227Z,22.88
2022-10-11T03:35:16.406Z,26.13
2022-10-11T03:37:44.174Z,19.58
2022-10-11T03:40:12.516Z,18.23
2022-10-11T03:42:40.359Z,22.83
2022-10-11T03:45:09.753Z,22.40
2022-10-11T03:47:38.608Z,19.25
2022-10-11T03:50:07.858Z,22.25
2022-10-11T03:52:36.101Z,22.50
2022-10-11T03:55:04.141Z,18.88
2022-10-11T03:57:34.361Z,18.33
2022-10-11T04:00:01.733Z,17.13
2022-10-11T04:02:29.717Z,18.73
2022-10-11T04:04:59.626Z,17.67
2022-10-11T04:07:27.018Z,21.67
2022-10-11T04:09:57.305Z,18.90
2022-10-11T04:12:24.853Z,20.85
2022-10-11T04:14:55.135Z,19.67
2022-10-11T04:17:22.462Z,18.33
2022-10-11T04:19:52.536Z,24.15
2022-10-11T04:22:19.831Z,19.27
2022-10-11T04:24:47.164Z,21.60
2022-10-11T04:27:14.591Z,21.63
2022-10-11T04:29:41.830Z,23.10
2022-10-11T04:32:09.162Z,21.17
2022-10-11T04:34:36.470Z,20.92
2022-10-11T04:37:03.775Z,19.85
2022-10-11T04:39:31.095Z,23.05
2022-10-11T04:41:58.734Z,22.48
2022-10-11T04:44:26.782Z,17.85
2022-10-11T04:46:56.817Z,20.88
2022-10-11T04:49:24.429Z,23.05
2022-10-11T04:51:55.096Z,17.70
2022-10-11T04:54:22.435Z,24.48
2022-10-11T04:56:50.810Z,20.52
2022-10-11T04:59:20.900Z,23.45
2022-10-11T05:01:48.237Z,25.15
2022-10-11T05:04:15.707Z,22.63
2022-10-11T05:06:45.520Z,27.10
2022-10-11T05:09:13.275Z,22.67
2022-10-11T05:11:40.638Z,23.13
2022-10-11T05:14:08.057Z,20.50
2022-10-11T05:16:35.411Z,22.55
2022-10-11T05:19:02.773Z,32.22
2022-10-11T05:21:31.077Z,23.20
2022-10-11T05:23:58.535Z,25.13
2022-10-11T05:26:27.890Z,21.40
2022-10-11T05:28:55.436Z,20.88
2022-10-11T05:31:23.345Z,20.15
2022-10-11T05:33:50.791Z,20.25
2022-10-11T05:36:18.115Z,20.85
2022-10-11T05:38:45.509Z,23.85
2022-10-11T05:41:14.674Z,23.13
2022-10-11T05:43:42.629Z,24.58
2022-10-11T05:46:12.783Z,20.55
2022-10-11T05:48:40.481Z,25.73
2022-10-11T05:51:12.541Z,19.33
2022-10-11T05:53:40.198Z,21.75
2022-10-11T05:56:19.225Z,27.45
2022-10-11T05:58:47.072Z,16.30
2022-10-11T06:01:23.285Z,18.15
2022-10-11T06:03:50.933Z,26.23
2022-10-11T06:06:18.763Z,21.08
2022-10-11T06:08:46.173Z,24.40
2022-10-11T06:11:19.499Z,27.75
2022-10-11T06:13:46.936Z,25.33
2022-10-11T06:16:15.104Z,27.17
2022-10-11T06:18:42.479Z,19.98
2022-10-11T06:21:10.286Z,24.95
2022-10-11T06:23:38.055Z,27.80
2022-10-11T06:26:08.896Z,23.15
2022-10-11T06:28:37.274Z,26.67
2022-10-11T06:31:06.768Z,27.08
2022-10-11T06:33:35.122Z,22.70
2022-10-11T06:36:09.813Z,26.50
2022-10-11T06:38:42.282Z,24.67
2022-10-11T06:41:32.206Z,31.10
2022-10-11T06:43:59.574Z,21.27
2022-10-11T06:46:28.089Z,26.08
2022-10-11T06:48:56.429Z,21.45
2022-10-11T06:51:24.225Z,18.90
2022-10-11T06:53:55.325Z,23.33
2022-10-11T06:56:22.907Z,21.88
2022-10-11T06:58:51.248Z,17.10
2022-10-11T07:01:20.487Z,22.38
2022-10-11T07:03:48.526Z,33.33
2022-10-11T07:06:22.205Z,26.15
2022-10-11T07:08:52.948Z,25.13
2022-10-11T07:11:24.237Z,22.85
2022-10-11T07:13:56.983Z,21.38
2022-10-11T07:16:25.144Z,25.00
2022-10-11T07:18:59.603Z,26.27
2022-10-11T07:21:28.687Z,21.65
2022-10-11T07:23:56.049Z,23.55
2022-10-11T07:26:26.237Z,23.52
2022-10-11T07:28:53.679Z,26.98
2022-10-11T07:31:24.075Z,22.30
2022-10-11T07:33:51.414Z,25.60
2022-10-11T07:36:18.901Z,21.63
2022-10-11T07:38:47.371Z,20.75
2022-10-11T07:41:15.024Z,23.25
2022-10-11T07:43:43.613Z,25.48
2022-10-11T07:46:11.315Z,26.83
2022-10-11T07:48:38.945Z,27.85
2022-10-11T07:51:09.761Z,28.98
2022-10-11T07:53:48.089Z,31.92
2022-10-11T07:56:19.135Z,26.35
2022-10-11T07:58:51.555Z,36.17
2022-10-11T08:01:19.306Z,34.85
2022-10-11T08:03:47.699Z,30.63
2022-10-11T08:06:36.667Z,27.70
2022-10-11T08:09:04.286Z,21.92
2022-10-11T08:11:34.822Z,21.80
2022-10-11T08:14:05.179Z,23.55
2022-10-11T08:16:32.627Z,22.63
2022-10-11T08:19:01.019Z,29.00
2022-10-11T08:21:28.707Z,25.58
2022-10-11T08:23:56.051Z,24.88
2022-10-11T08:26:23.524Z,23.58
2022-10-11T08:28:50.994Z,30.25
2022-10-11T08:31:18.589Z,26.95
2022-10-11T08:33:46.067Z,28.02
2022-10-11T08:36:13.718Z,28.60
2022-10-11T08:38:42.063Z,35.25
2022-10-11T08:41:27.608Z,33.55
2022-10-11T08:44:10.358Z,30.92
2022-10-11T08:46:42.070Z,24.38
2022-10-11T08:51:43.756Z,28.38
2022-10-11T08:54:57.120Z,23.27
2022-10-11T08:57:28.579Z,27.80
2022-10-11T09:00:00.786Z,21.45
2022-10-11T09:03:08.046Z,26.05
2022-10-11T09:05:49.461Z,33.95
2022-10-11T09:09:01.637Z,26.25
2022-10-11T09:11:59.384Z,31.85
2022-10-11T09:15:07.548Z,28.42
2022-10-11T09:17:53.541Z,30.42
2022-10-11T09:20:23.961Z,22.50
2022-10-11T09:23:06.430Z,31.38
2022-10-11T09:25:35.728Z,23.55
2022-10-11T09:28:05.878Z,28.95
2022-10-11T09:30:33.712Z,31.83
2022-10-11T09:33:23.868Z,34.17
2022-10-11T09:35:55.156Z,32.65
2022-10-11T09:38:37.469Z,33.85
2022-10-11T09:41:25.275Z,29.90
2022-10-11T09:43:53.080Z,37.33
2022-10-11T09:46:25.453Z,25.20
2022-10-11T09:48:56.238Z,34.17
2022-10-11T09:51:27.219Z,34.28
2022-10-11T09:54:04.914Z,32.70
2022-10-11T09:56:34.722Z,35.78
2022-10-11T09:59:29.497Z,36.97
2022-10-11T10:02:06.995Z,31.70
2022-10-11T10:04:34.430Z,36.78
2022-10-11T10:07:20.477Z,41.70
2022-10-11T10:09:47.904Z,35.75
2022-10-11T10:12:21.566Z,31.15
2022-10-11T10:15:08.576Z,30.05
2022-10-11T10:17:38.584Z,32.88
2022-10-11T10:20:07.385Z,31.75
2022-10-11T10:22:35.957Z,25.08
2022-10-11T10:25:08.046Z,29.50
2022-10-11T10:27:35.587Z,32.13
2022-10-11T10:30:08.642Z,32.63
2022-10-11T10:32:48.746Z,29.25
2022-10-11T10:35:49.586Z,36.60
2022-10-11T10:38:26.564Z,31.65
2022-10-11T10:41:02.900Z,35.35
2022-10-11T10:43:34.744Z,36.60
2022-10-11T10:52:27.066Z,35.53
2022-10-11T10:55:21.050Z,33.20
2022-10-11T10:58:33.415Z,31.45
2022-10-11T11:03:54.589Z,27.35
2022-10-11T11:06:36.482Z,30.73
2022-10-11T11:09:17.139Z,29.05
2022-10-11T11:11:59.414Z,30.80
2022-10-11T11:14:26.658Z,24.58
2022-10-11T11:17:31.782Z,33.30
2022-10-11T11:20:19.367Z,29.35
2022-10-11T11:22:52.564Z,36.08
2022-10-11T11:25:35.237Z,34.25
2022-10-11T11:28:23.518Z,33.58
2022-10-11T11:31:06.335Z,32.38
2022-10-11T11:33:49.599Z,29.52
2022-10-11T11:36:42.179Z,30.42
2022-10-11T11:39:35.714Z,36.72
2022-10-11T11:42:19.569Z,29.50
2022-10-11T11:44:49.912Z,34.65
2022-10-11T11:47:46.970Z,29.85
2022-10-11T11:50:23.787Z,29.10
2022-10-11T11:53:05.383Z,32.10
2022-10-11T11:55:49.226Z,28.30
2022-10-11T11:58:25.473Z,32.45
2022-10-11T12:01:07.239Z,35.20
2022-10-11T12:06:15.218Z,30.23
2022-10-11T12:08:46.810Z,33.78
2022-10-11T12:11:30.481Z,27.88
2022-10-11T12:14:03.744Z,33.28
2022-10-11T12:16:31.373Z,39.33
2022-10-11T12:19:03.686Z,30.88
2022-10-11T12:21:32.750Z,29.17
2022-10-11T12:24:20.399Z,40.67
2022-10-11T12:26:49.606Z,35.25
2022-10-11T12:29:44.085Z,29.15
2022-10-11T12:32:34.493Z,29.25
2022-10-11T12:35:33.672Z,23.38
2022-10-11T12:38:21.518Z,32.70
2022-10-11T12:40:54.687Z,31.27
2022-10-11T12:43:29.302Z,31.50
2022-10-11T12:45:56.953Z,27.10
2022-10-11T12:49:01.346Z,24.92
2022-10-11T12:51:51.222Z,34.45
2022-10-11T12:54:52.571Z,30.25
2022-10-11T12:57:50.431Z,36.70
2022-10-11T13:00:28.964Z,27.85
2022-10-11T13:03:01.040Z,29.25
2022-10-11T13:05:43.196Z,35.30
2022-10-11T13:08:23.293Z,30.30
2022-10-11T13:10:51.550Z,34.10
2022-10-11T13:13:24.606Z,32.22
2022-10-11T13:15:58.527Z,28.38
2022-10-11T13:18:29.591Z,26.55
2022-10-11T13:20:57.281Z,25.90
2022-10-11T13:23:27.737Z,22.30
2022-10-11T13:26:00.301Z,23.80
2022-10-11T13:28:32.855Z,25.13
2022-10-11T13:31:04.534Z,31.80
2022-10-11T13:33:36.046Z,26.67
2022-10-11T13:36:08.539Z,22.42
2022-10-11T13:38:37.373Z,30.85
2022-10-11T13:41:07.922Z,26.25
2022-10-11T13:43:36.197Z,27.60
2022-10-11T13:46:13.521Z,24.52
2022-10-11T13:48:41.318Z,31.48
2022-10-11T13:51:12.683Z,28.58
2022-10-11T13:54:00.185Z,31.73
2022-10-11T13:56:29.170Z,29.58
2022-10-11T13:58:57.139Z,22.35
2022-10-11T14:01:27.091Z,28.38
2022-10-11T14:03:59.011Z,34.10
2022-10-11T14:11:43.364Z,26.25
2022-10-11T14:14:34.865Z,26.48
2022-10-11T14:17:09.982Z,24.88
2022-10-11T14:19:37.683Z,22.40
2022-10-11T14:22:07.310Z,27.23
2022-10-11T14:24:34.635Z,25.38
2022-10-11T14:27:05.472Z,26.73
2022-10-11T14:29:35.372Z,27.42
2022-10-11T14:32:10.726Z,31.60
2022-10-11T14:34:38.369Z,25.65
2022-10-11T14:37:05.794Z,27.45
2022-10-11T14:39:33.635Z,29.17
2022-10-11T14:42:01.069Z,26.23
2022-10-11T14:44:28.489Z,26.33
2022-10-11T14:46:55.919Z,28.77
2022-10-11T14:49:29.204Z,33.10
2022-10-11T14:52:00.334Z,27.17
2022-10-11T14:54:30.341Z,23.77
2022-10-11T14:57:00.333Z,25.73
2022-10-11T14:59:34.140Z,24.35
2022-10-11T15:02:02.256Z,23.33
2022-10-11T15:04:29.872Z,25.15
2022-10-11T15:06:58.587Z,24.63
2022-10-11T15:09:29.177Z,24.65
2022-10-11T15:11:57.552Z,28.13
2022-10-11T15:14:25.274Z,22.10
2022-10-11T15:16:56.300Z,30.52
2022-10-11T15:19:25.080Z,24.33
2022-10-11T15:21:52.756Z,21.08
2022-10-11T15:24:20.389Z,27.48
2022-10-11T15:26:48.706Z,27.73
2022-10-11T15:29:17.982Z,25.70
2022-10-11T15:31:46.282Z,27.15
2022-10-11T15:34:14.381Z,18.92
2022-10-11T15:36:41.843Z,19.60
2022-10-11T15:39:32.585Z,22.10
2022-10-11T15:42:00.093Z,30.40
2022-10-11T15:44:27.501Z,17.83
2022-10-11T15:46:54.972Z,26.95
2022-10-11T15:49:22.279Z,27.23
2022-10-11T15:51:49.668Z,21.02
2022-10-11T15:54:17.042Z,21.85
2022-10-11T15:56:44.367Z,24.65
2022-10-11T15:59:11.928Z,19.15
2022-10-11T16:01:39.642Z,20.48
2022-10-11T16:04:07.012Z,22.58
2022-10-11T16:06:34.472Z,30.20
2022-10-11T16:09:01.806Z,26.08
2022-10-11T16:11:29.193Z,26.13
2022-10-11T16:13:56.553Z,20.70
2022-10-11T16:16:23.941Z,21.52
2022-10-11T16:18:51.547Z,22.40
2022-10-11T16:21:20.828Z,20.05
2022-10-11T16:23:48.127Z,21.65
2022-10-11T16:26:16.597Z,20.23
2022-10-11T16:28:44.372Z,20.92
2022-10-11T16:31:18.101Z,21.60
2022-10-11T16:33:46.126Z,16.85
2022-10-11T16:36:40.402Z,18.90
2022-10-11T16:39:14.208Z,27.02
2022-10-11T16:41:42.631Z,16.52
2022-10-11T16:44:14.369Z,16.48
2022-10-11T16:46:42.476Z,20.08
2022-10-11T16:49:09.915Z,19.73
2022-10-11T16:51:37.252Z,19.02
2022-10-11T16:54:04.762Z,17.13
2022-10-11T16:56:37.396Z,18.23
2022-10-11T16:59:07.871Z,17.23
2022-10-11T17:01:35.296Z,17.73
2022-10-11T17:04:02.717Z,17.95
2022-10-11T17:06:30.175Z,15.90
2022-10-11T17:08:57.474Z,20.15
2022-10-11T17:11:24.976Z,20.20
2022-10-11T17:13:55.849Z,17.42
2022-10-11T17:16:23.934Z,17.10
2022-10-11T17:18:51.642Z,16.35
2022-10-11T17:21:21.335Z,15.73
2022-10-11T17:23:49.368Z,22.83
2022-10-11T17:26:20.986Z,22.63
2022-10-11T17:28:48.386Z,20.10
2022-10-11T17:31:15.963Z,21.23
2022-10-11T17:33:43.359Z,18.98
2022-10-11T17:36:27.755Z,15.18
2022-10-11T17:38:55.147Z,18.70
2022-10-11T17:41:22.538Z,17.88
2022-10-11T17:43:49.879Z,15.38
2022-10-11T17:46:18.283Z,17.83
2022-10-11T17:48:45.655Z,24.20
2022-10-11T17:51:15.862Z,18.05
2022-10-11T17:53:43.735Z,20.75
2022-10-11T17:56:14.252Z,19.17
2022-10-11T17:58:41.819Z,17.88
2022-10-11T18:01:13.608Z,21.00
2022-10-11T18:06:11.991Z,22.17
2022-10-11T18:08:40.963Z,24.30
2022-10-11T18:11:14.053Z,21.75
2022-10-11T18:13:45.857Z,20.33
2022-10-11T18:18:42.398Z,16.15
2022-10-11T18:21:10.659Z,26.65
2022-10-11T18:23:38.465Z,17.85
2022-10-11T18:26:17.084Z,24.10
2022-10-11T18:28:45.099Z,25.23
2022-10-11T18:31:19.144Z,20.48
2022-10-11T18:33:47.128Z,15.98
2022-10-11T18:36:16.525Z,17.10
2022-10-11T18:38:49.223Z,21.45
2022-10-11T18:41:19.593Z,18.50
2022-10-11T18:43:52.400Z,16.90
2022-10-11T18:46:21.070Z,20.73
2022-10-11T18:48:50.838Z,19.92
2022-10-11T18:51:20.887Z,21.13
2022-10-11T18:53:49.337Z,22.60
2022-10-11T18:56:20.512Z,34.33
2022-10-11T18:58:50.208Z,25.83
2022-10-11T19:01:32.648Z,21.80
2022-10-11T19:04:01.767Z,26.27
2022-10-11T19:06:35.628Z,26.27
2022-10-11T19:09:09.226Z,24.80
2022-10-11T19:11:36.893Z,26.55
2022-10-11T19:14:08.858Z,27.65
2022-10-11T19:16:38.573Z,22.33
2022-10-11T19:19:06.863Z,27.08
2022-10-11T19:21:34.185Z,24.20
2022-10-11T19:24:01.955Z,20.85
2022-10-11T19:26:35.698Z,22.95
2022-10-11T19:29:06.729Z,23.90
2022-10-11T19:31:36.030Z,28.65
2022-10-11T19:34:03.444Z,27.38
2022-10-11T19:36:36.260Z,25.52
2022-10-11T19:39:05.674Z,27.10
2022-10-11T19:41:33.496Z,27.75
2022-10-11T19:44:00.828Z,29.20
2022-10-11T19:49:17.811Z,25.15
2022-10-11T19:51:45.307Z,29.52
2022-10-11T19:54:14.619Z,24.73
2022-10-11T19:56:42.700Z,28.70
2022-10-11T19:59:11.249Z,29.73
2022-10-11T20:01:39.855Z,28.77
2022-10-11T20:04:12.882Z,26.30
2022-10-11T20:06:46.090Z,29.92
2022-10-11T20:09:30.625Z,35.20
2022-10-11T20:11:58.746Z,32.67
2022-10-11T20:14:26.213Z,25.88
2022-10-11T20:16:53.781Z,28.00
2022-10-11T20:19:26.243Z,29.58
2022-10-11T20:21:56.774Z,24.95
2022-10-11T20:24:24.204Z,26.73
2022-10-11T20:26:51.549Z,24.08
2022-10-11T20:29:18.928Z,27.02
2022-10-11T20:31:46.213Z,23.95
2022-10-11T20:34:13.555Z,29.23
2022-10-11T20:36:41.214Z,23.70
2022-10-11T20:39:10.234Z,24.50
2022-10-11T20:41:41.191Z,25.95
2022-10-11T20:44:09.777Z,23.17
2022-10-11T20:46:39.385Z,28.95
2022-10-11T20:49:09.394Z,25.23
2022-10-11T20:51:38.633Z,24.83
2022-10-11T20:54:06.178Z,22.23
2022-10-11T20:56:34.434Z,23.33
2022-10-11T20:59:02.385Z,22.58
2022-10-11T21:01:37.004Z,22.75
2022-10-11T21:04:06.008Z,26.02
2022-10-11T21:06:34.029Z,20.88
2022-10-11T21:09:01.773Z,23.55
2022-10-11T21:11:31.902Z,22.35
2022-10-11T21:14:04.318Z,26.92
2022-10-11T21:16:32.763Z,28.17
2022-10-11T21:19:01.636Z,23.48
2022-10-11T21:21:30.186Z,26.40
2022-10-11T21:24:00.226Z,22.13
2022-10-11T21:26:28.499Z,26.02
2022-10-11T21:28:55.917Z,28.55
2022-10-11T21:31:23.888Z,19.10
2022-10-11T21:33:51.719Z,23.95
2022-10-11T21:36:21.896Z,25.90
2022-10-11T21:38:50.562Z,24.85
2022-10-11T21:41:21.196Z,29.13
2022-10-11T21:43:49.027Z,24.85
2022-10-11T21:46:19.420Z,26.27
2022-10-11T21:48:47.106Z,28.20
2022-10-11T21:51:36.349Z,23.95
2022-10-11T21:54:03.868Z,24.52
2022-10-11T21:56:31.842Z,25.55
2022-10-11T21:58:59.345Z,26.92
2022-10-11T22:01:27.029Z,30.10
2022-10-11T22:03:54.692Z,27.35
2022-10-11T22:06:22.560Z,22.17
2022-10-11T22:08:50.376Z,28.17
2022-10-11T22:11:17.730Z,22.05
2022-10-11T22:13:45.198Z,28.92
2022-10-11T22:16:13.854Z,20.95
2022-10-11T22:18:42.086Z,23.35
2022-10-11T22:21:18.572Z,28.77
2022-10-11T22:23:48.043Z,27.02
2022-10-11T22:26:18.188Z,26.05
2022-10-11T22:28:48.824Z,22.48
2022-10-11T22:31:18.066Z,21.00
2022-10-11T22:36:19.225Z,27.92
2022-10-11T22:38:47.260Z,26.50
2022-10-11T22:41:14.737Z,24.30
2022-10-11T22:43:42.142Z,26.35
2022-10-11T22:46:09.618Z,21.38
2022-10-11T22:48:37.378Z,20.77
2022-10-11T22:51:04.706Z,28.38
2022-10-11T22:53:32.387Z,20.92
2022-10-11T22:55:59.822Z,22.63
2022-10-11T22:58:27.365Z,18.02
2022-10-11T23:00:54.715Z,22.00
2022-10-11T23:03:22.141Z,22.50
2022-10-11T23:05:57.065Z,19.25
2022-10-11T23:08:24.622Z,19.45
2022-10-11T23:10:52.351Z,28.38
2022-10-11T23:13:20.394Z,23.45
2022-10-11T23:15:48.062Z,23.50
2022-10-11T23:18:16.689Z,21.13
2022-10-11T23:20:44.258Z,27.33
2022-10-11T23:23:11.670Z,20.85
2022-10-11T23:25:39.048Z,22.98
2022-10-11T23:28:06.408Z,21.15
2022-10-11T23:30:33.997Z,20.45
2022-10-11T23:33:01.358Z,19.40
2022-10-11T23:35:28.594Z,22.85
2022-10-11T23:37:55.809Z,23.23
2022-10-11T23:40:23.171Z,22.85
2022-10-11T23:42:50.530Z,18.67
2022-10-11T23:45:17.875Z,21.08
2022-10-11T23:47:45.219Z,22.15
2022-10-11T23:50:12.486Z,23.27
2022-10-11T23:52:39.721Z,25.00
2022-10-11T23:55:07.279Z,23.48
2022-10-11T23:57:34.882Z,20.40
